sensor_id;sensor_type;location;lat;lon;timestamp;P1;durP1;ratioP1;P2;durP2;ratioP2
64029;SDS011;50277;52.064;4.492;2023-05-07T00:01:17;43.50;;;31.08;;
64029;SDS011;50277;52.064;4.492;2023-05-07T00:03:42;41.28;;;30.00;;
64029;SDS011;50277;52.064;4.492;2023-05-07T00:06:08;44.05;;;31.38;;
64029;SDS011;50277;52.064;4.492;2023-05-07T00:08:33;43.47;;;29.70;;
64029;SDS011;50277;52.064;4.492;2023-05-07T00:10:59;46.13;;;29.50;;
64029;SDS011;50277;52.064;4.492;2023-05-07T00:13:24;38.55;;;28.23;;
64029;SDS011;50277;52.064;4.492;2023-05-07T00:15:49;43.08;;;28.63;;
64029;SDS011;50277;52.064;4.492;2023-05-07T00:18:15;42.70;;;29.20;;
64029;SDS011;50277;52.064;4.492;2023-05-07T00:20:40;41.17;;;29.17;;
64029;SDS011;50277;52.064;4.492;2023-05-07T00:23:06;37.35;;;28.27;;
64029;SDS011;50277;52.064;4.492;2023-05-07T00:25:31;44.30;;;29.20;;
64029;SDS011;50277;52.064;4.492;2023-05-07T00:27:56;42.80;;;28.60;;
64029;SDS011;50277;52.064;4.492;2023-05-07T00:30:27;39.05;;;28.27;;
64029;SDS011;50277;52.064;4.492;2023-05-07T00:32:52;41.50;;;27.23;;
64029;SDS011;50277;52.064;4.492;2023-05-07T00:35:18;40.05;;;28.42;;
64029;SDS011;50277;52.064;4.492;2023-05-07T00:37:43;37.60;;;28.35;;
64029;SDS011;50277;52.064;4.492;2023-05-07T00:40:09;37.28;;;27.13;;
64029;SDS011;50277;52.064;4.492;2023-05-07T00:42:35;32.38;;;25.65;;
64029;SDS011;50277;52.064;4.492;2023-05-07T00:45:00;40.75;;;30.33;;
64029;SDS011;50277;52.064;4.492;2023-05-07T00:47:26;39.47;;;30.33;;
64029;SDS011;50277;52.064;4.492;2023-05-07T00:49:52;41.92;;;29.77;;
64029;SDS011;50277;52.064;4.492;2023-05-07T00:52:17;39.95;;;28.75;;
64029;SDS011;50277;52.064;4.492;2023-05-07T00:54:44;38.28;;;29.00;;
64029;SDS011;50277;52.064;4.492;2023-05-07T00:57:10;46.25;;;31.55;;
64029;SDS011;50277;52.064;4.492;2023-05-07T00:59:38;41.42;;;30.50;;
64029;SDS011;50277;52.064;4.492;2023-05-07T01:02:05;37.65;;;29.90;;
64029;SDS011;50277;52.064;4.492;2023-05-07T01:04:31;41.80;;;29.63;;
64029;SDS011;50277;52.064;4.492;2023-05-07T01:06:56;39.60;;;29.10;;
64029;SDS011;50277;52.064;4.492;2023-05-07T01:09:23;40.53;;;29.35;;
64029;SDS011;50277;52.064;4.492;2023-05-07T01:11:50;42.28;;;30.00;;
64029;SDS011;50277;52.064;4.492;2023-05-07T01:14:17;38.90;;;29.02;;
64029;SDS011;50277;52.064;4.492;2023-05-07T01:16:42;37.53;;;29.20;;
64029;SDS011;50277;52.064;4.492;2023-05-07T01:19:08;33.85;;;26.85;;
64029;SDS011;50277;52.064;4.492;2023-05-07T01:21:35;36.73;;;29.07;;
64029;SDS011;50277;52.064;4.492;2023-05-07T01:24:02;37.33;;;28.77;;
64029;SDS011;50277;52.064;4.492;2023-05-07T01:26:27;38.83;;;27.70;;
64029;SDS011;50277;52.064;4.492;2023-05-07T01:28:53;38.97;;;27.48;;
64029;SDS011;50277;52.064;4.492;2023-05-07T01:31:18;36.38;;;28.20;;
64029;SDS011;50277;52.064;4.492;2023-05-07T01:33:43;36.50;;;27.35;;
64029;SDS011;50277;52.064;4.492;2023-05-07T01:36:10;33.75;;;25.90;;
64029;SDS011;50277;52.064;4.492;2023-05-07T01:38:36;34.40;;;27.33;;
64029;SDS011;50277;52.064;4.492;2023-05-07T01:41:02;34.10;;;26.73;;
64029;SDS011;50277;52.064;4.492;2023-05-07T01:43:29;45.30;;;27.83;;
64029;SDS011;50277;52.064;4.492;2023-05-07T01:45:55;33.88;;;26.13;;
64029;SDS011;50277;52.064;4.492;2023-05-07T01:48:20;36.00;;;26.17;;
64029;SDS011;50277;52.064;4.492;2023-05-07T01:50:47;36.65;;;27.40;;
64029;SDS011;50277;52.064;4.492;2023-05-07T01:53:13;31.73;;;25.25;;
64029;SDS011;50277;52.064;4.492;2023-05-07T01:55:38;36.10;;;25.13;;
64029;SDS011;50277;52.064;4.492;2023-05-07T01:58:04;30.50;;;25.25;;
64029;SDS011;50277;52.064;4.492;2023-05-07T02:00:30;32.63;;;24.42;;
64029;SDS011;50277;52.064;4.492;2023-05-07T02:02:55;31.45;;;25.17;;
64029;SDS011;50277;52.064;4.492;2023-05-07T02:05:21;29.92;;;24.02;;
64029;SDS011;50277;52.064;4.492;2023-05-07T02:07:46;29.25;;;21.52;;
64029;SDS011;50277;52.064;4.492;2023-05-07T02:10:12;30.50;;;24.67;;
64029;SDS011;50277;52.064;4.492;2023-05-07T02:12:37;32.30;;;23.73;;
64029;SDS011;50277;52.064;4.492;2023-05-07T02:15:02;32.28;;;24.27;;
64029;SDS011;50277;52.064;4.492;2023-05-07T02:17:28;35.15;;;24.80;;
64029;SDS011;50277;52.064;4.492;2023-05-07T02:19:56;34.53;;;23.73;;
64029;SDS011;50277;52.064;4.492;2023-05-07T02:22:22;30.55;;;21.30;;
64029;SDS011;50277;52.064;4.492;2023-05-07T02:24:47;28.98;;;20.92;;
64029;SDS011;50277;52.064;4.492;2023-05-07T02:27:12;28.83;;;21.80;;
64029;SDS011;50277;52.064;4.492;2023-05-07T02:29:38;27.77;;;20.88;;
64029;SDS011;50277;52.064;4.492;2023-05-07T02:32:03;28.45;;;21.92;;
64029;SDS011;50277;52.064;4.492;2023-05-07T02:34:29;27.15;;;20.42;;
64029;SDS011;50277;52.064;4.492;2023-05-07T02:36:54;24.13;;;20.95;;
64029;SDS011;50277;52.064;4.492;2023-05-07T02:39:20;26.60;;;21.48;;
64029;SDS011;50277;52.064;4.492;2023-05-07T02:41:45;28.55;;;21.35;;
64029;SDS011;50277;52.064;4.492;2023-05-07T02:44:11;27.10;;;21.55;;
64029;SDS011;50277;52.064;4.492;2023-05-07T02:46:36;27.17;;;21.85;;
64029;SDS011;50277;52.064;4.492;2023-05-07T02:49:01;25.50;;;21.23;;
64029;SDS011;50277;52.064;4.492;2023-05-07T02:51:27;26.42;;;20.92;;
64029;SDS011;50277;52.064;4.492;2023-05-07T02:53:52;27.17;;;22.00;;
64029;SDS011;50277;52.064;4.492;2023-05-07T02:56:18;27.85;;;21.52;;
64029;SDS011;50277;52.064;4.492;2023-05-07T02:58:43;26.60;;;21.15;;
64029;SDS011;50277;52.064;4.492;2023-05-07T03:01:08;26.83;;;21.33;;
64029;SDS011;50277;52.064;4.492;2023-05-07T03:03:34;27.00;;;21.17;;
64029;SDS011;50277;52.064;4.492;2023-05-07T03:06:00;23.35;;;20.73;;
64029;SDS011;50277;52.064;4.492;2023-05-07T03:08:25;24.05;;;20.75;;
64029;SDS011;50277;52.064;4.492;2023-05-07T03:10:50;26.05;;;20.50;;
64029;SDS011;50277;52.064;4.492;2023-05-07T03:13:16;23.48;;;20.77;;
64029;SDS011;50277;52.064;4.492;2023-05-07T03:15:41;26.98;;;20.05;;
64029;SDS011;50277;52.064;4.492;2023-05-07T03:18:07;25.45;;;20.70;;
64029;SDS011;50277;52.064;4.492;2023-05-07T03:20:32;23.40;;;19.63;;
64029;SDS011;50277;52.064;4.492;2023-05-07T03:22:57;24.52;;;18.33;;
64029;SDS011;50277;52.064;4.492;2023-05-07T03:25:23;21.25;;;18.55;;
64029;SDS011;50277;52.064;4.492;2023-05-07T03:27:48;23.17;;;18.67;;
64029;SDS011;50277;52.064;4.492;2023-05-07T03:30:13;26.27;;;19.70;;
64029;SDS011;50277;52.064;4.492;2023-05-07T03:32:39;24.15;;;18.73;;
64029;SDS011;50277;52.064;4.492;2023-05-07T03:35:04;20.42;;;18.13;;
64029;SDS011;50277;52.064;4.492;2023-05-07T03:37:30;19.70;;;17.25;;
64029;SDS011;50277;52.064;4.492;2023-05-07T03:39:55;18.98;;;16.83;;
64029;SDS011;50277;52.064;4.492;2023-05-07T03:42:20;21.10;;;17.13;;
64029;SDS011;50277;52.064;4.492;2023-05-07T03:44:46;19.63;;;16.65;;
64029;SDS011;50277;52.064;4.492;2023-05-07T03:47:11;19.00;;;16.33;;
64029;SDS011;50277;52.064;4.492;2023-05-07T03:49:38;18.38;;;16.27;;
64029;SDS011;50277;52.064;4.492;2023-05-07T03:52:03;18.10;;;15.27;;
64029;SDS011;50277;52.064;4.492;2023-05-07T03:54:29;19.10;;;15.55;;
64029;SDS011;50277;52.064;4.492;2023-05-07T03:56:55;17.33;;;15.50;;
64029;SDS011;50277;52.064;4.492;2023-05-07T03:59:21;20.02;;;15.88;;
64029;SDS011;50277;52.064;4.492;2023-05-07T04:01:46;17.38;;;15.57;;
64029;SDS011;50277;52.064;4.492;2023-05-07T04:04:12;17.55;;;15.55;;
64029;SDS011;50277;52.064;4.492;2023-05-07T04:06:37;16.65;;;14.98;;
64029;SDS011;50277;52.064;4.492;2023-05-07T04:09:02;18.27;;;14.23;;
64029;SDS011;50277;52.064;4.492;2023-05-07T04:11:28;16.90;;;14.23;;
64029;SDS011;50277;52.064;4.492;2023-05-07T04:13:53;16.08;;;14.38;;
64029;SDS011;50277;52.064;4.492;2023-05-07T04:16:19;17.00;;;13.35;;
64029;SDS011;50277;52.064;4.492;2023-05-07T04:18:44;16.80;;;13.77;;
64029;SDS011;50277;52.064;4.492;2023-05-07T04:21:19;16.88;;;14.35;;
64029;SDS011;50277;52.064;4.492;2023-05-07T04:23:45;16.60;;;13.18;;
64029;SDS011;50277;52.064;4.492;2023-05-07T04:26:12;16.17;;;14.15;;
64029;SDS011;50277;52.064;4.492;2023-05-07T04:28:38;17.23;;;13.48;;
64029;SDS011;50277;52.064;4.492;2023-05-07T04:31:04;14.73;;;13.18;;
64029;SDS011;50277;52.064;4.492;2023-05-07T04:33:29;14.80;;;13.18;;
64029;SDS011;50277;52.064;4.492;2023-05-07T04:35:55;14.30;;;12.88;;
64029;SDS011;50277;52.064;4.492;2023-05-07T04:38:20;14.88;;;13.27;;
64029;SDS011;50277;52.064;4.492;2023-05-07T04:40:46;14.63;;;13.13;;
64029;SDS011;50277;52.064;4.492;2023-05-07T04:43:12;14.13;;;12.63;;
64029;SDS011;50277;52.064;4.492;2023-05-07T04:45:38;15.88;;;12.90;;
64029;SDS011;50277;52.064;4.492;2023-05-07T04:48:06;16.38;;;13.85;;
64029;SDS011;50277;52.064;4.492;2023-05-07T04:50:31;14.93;;;13.48;;
64029;SDS011;50277;52.064;4.492;2023-05-07T04:52:57;14.50;;;12.80;;
64029;SDS011;50277;52.064;4.492;2023-05-07T04:55:23;16.00;;;12.77;;
64029;SDS011;50277;52.064;4.492;2023-05-07T04:57:48;14.65;;;13.05;;
64029;SDS011;50277;52.064;4.492;2023-05-07T05:00:13;15.65;;;12.23;;
64029;SDS011;50277;52.064;4.492;2023-05-07T05:02:40;15.55;;;12.52;;
64029;SDS011;50277;52.064;4.492;2023-05-07T05:05:06;14.18;;;12.68;;
64029;SDS011;50277;52.064;4.492;2023-05-07T05:07:31;15.07;;;12.85;;
64029;SDS011;50277;52.064;4.492;2023-05-07T05:09:57;14.38;;;12.52;;
64029;SDS011;50277;52.064;4.492;2023-05-07T05:12:22;14.02;;;11.82;;
64029;SDS011;50277;52.064;4.492;2023-05-07T05:14:48;17.63;;;12.23;;
64029;SDS011;50277;52.064;4.492;2023-05-07T05:17:13;15.90;;;12.50;;
64029;SDS011;50277;52.064;4.492;2023-05-07T05:19:38;13.63;;;12.38;;
64029;SDS011;50277;52.064;4.492;2023-05-07T05:22:04;14.45;;;11.95;;
64029;SDS011;50277;52.064;4.492;2023-05-07T05:24:30;13.93;;;12.27;;
64029;SDS011;50277;52.064;4.492;2023-05-07T05:26:56;14.95;;;12.30;;
64029;SDS011;50277;52.064;4.492;2023-05-07T05:29:21;12.75;;;11.55;;
64029;SDS011;50277;52.064;4.492;2023-05-07T05:31:46;15.70;;;12.55;;
64029;SDS011;50277;52.064;4.492;2023-05-07T05:34:12;16.58;;;13.30;;
64029;SDS011;50277;52.064;4.492;2023-05-07T05:36:37;16.67;;;12.85;;
64029;SDS011;50277;52.064;4.492;2023-05-07T05:39:02;13.48;;;12.18;;
64029;SDS011;50277;52.064;4.492;2023-05-07T05:41:28;17.10;;;13.23;;
64029;SDS011;50277;52.064;4.492;2023-05-07T05:43:54;15.25;;;13.38;;
64029;SDS011;50277;52.064;4.492;2023-05-07T05:46:19;16.10;;;12.95;;
64029;SDS011;50277;52.064;4.492;2023-05-07T05:48:44;15.52;;;12.85;;
64029;SDS011;50277;52.064;4.492;2023-05-07T05:51:10;14.50;;;13.02;;
64029;SDS011;50277;52.064;4.492;2023-05-07T05:53:35;17.52;;;13.43;;
64029;SDS011;50277;52.064;4.492;2023-05-07T05:56:00;14.60;;;12.88;;
64029;SDS011;50277;52.064;4.492;2023-05-07T05:58:26;18.25;;;14.65;;
64029;SDS011;50277;52.064;4.492;2023-05-07T06:00:51;14.32;;;12.90;;
64029;SDS011;50277;52.064;4.492;2023-05-07T06:03:18;15.77;;;14.15;;
64029;SDS011;50277;52.064;4.492;2023-05-07T06:05:43;15.80;;;14.20;;
64029;SDS011;50277;52.064;4.492;2023-05-07T06:08:08;17.85;;;14.32;;
64029;SDS011;50277;52.064;4.492;2023-05-07T06:10:35;16.23;;;13.93;;
64029;SDS011;50277;52.064;4.492;2023-05-07T06:13:01;17.63;;;14.98;;
64029;SDS011;50277;52.064;4.492;2023-05-07T06:15:27;21.05;;;15.27;;
64029;SDS011;50277;52.064;4.492;2023-05-07T06:17:52;18.63;;;14.80;;
64029;SDS011;50277;52.064;4.492;2023-05-07T06:20:18;21.05;;;15.23;;
64029;SDS011;50277;52.064;4.492;2023-05-07T06:22:43;16.40;;;14.45;;
64029;SDS011;50277;52.064;4.492;2023-05-07T06:25:08;17.05;;;15.15;;
64029;SDS011;50277;52.064;4.492;2023-05-07T06:27:34;17.48;;;15.23;;
64029;SDS011;50277;52.064;4.492;2023-05-07T06:29:59;16.67;;;14.90;;
64029;SDS011;50277;52.064;4.492;2023-05-07T06:32:25;16.48;;;14.77;;
64029;SDS011;50277;52.064;4.492;2023-05-07T06:34:50;16.20;;;14.60;;
64029;SDS011;50277;52.064;4.492;2023-05-07T06:37:15;17.33;;;13.75;;
64029;SDS011;50277;52.064;4.492;2023-05-07T06:39:41;16.27;;;13.07;;
64029;SDS011;50277;52.064;4.492;2023-05-07T06:42:06;15.65;;;13.98;;
64029;SDS011;50277;52.064;4.492;2023-05-07T06:44:31;15.65;;;13.55;;
64029;SDS011;50277;52.064;4.492;2023-05-07T06:46:57;15.50;;;13.88;;
64029;SDS011;50277;52.064;4.492;2023-05-07T06:49:22;16.88;;;13.10;;
64029;SDS011;50277;52.064;4.492;2023-05-07T06:51:47;17.83;;;14.18;;
64029;SDS011;50277;52.064;4.492;2023-05-07T06:54:13;17.35;;;14.07;;
64029;SDS011;50277;52.064;4.492;2023-05-07T06:56:38;19.50;;;14.68;;
64029;SDS011;50277;52.064;4.492;2023-05-07T06:59:03;15.70;;;13.52;;
64029;SDS011;50277;52.064;4.492;2023-05-07T07:01:29;17.50;;;14.20;;
64029;SDS011;50277;52.064;4.492;2023-05-07T07:03:54;16.27;;;14.57;;
64029;SDS011;50277;52.064;4.492;2023-05-07T07:06:20;16.73;;;14.93;;
64029;SDS011;50277;52.064;4.492;2023-05-07T07:08:45;16.80;;;15.10;;
64029;SDS011;50277;52.064;4.492;2023-05-07T07:11:10;17.65;;;15.48;;
64029;SDS011;50277;52.064;4.492;2023-05-07T07:13:36;17.02;;;15.23;;
64029;SDS011;50277;52.064;4.492;2023-05-07T07:16:01;17.38;;;14.10;;
64029;SDS011;50277;52.064;4.492;2023-05-07T07:18:27;15.23;;;13.63;;
64029;SDS011;50277;52.064;4.492;2023-05-07T07:20:53;15.05;;;13.43;;
64029;SDS011;50277;52.064;4.492;2023-05-07T07:23:18;17.58;;;13.45;;
64029;SDS011;50277;52.064;4.492;2023-05-07T07:25:43;17.00;;;12.63;;
64029;SDS011;50277;52.064;4.492;2023-05-07T07:28:09;14.60;;;12.95;;
64029;SDS011;50277;52.064;4.492;2023-05-07T07:30:35;15.38;;;11.80;;
64029;SDS011;50277;52.064;4.492;2023-05-07T07:33:01;13.80;;;11.15;;
64029;SDS011;50277;52.064;4.492;2023-05-07T07:35:27;12.23;;;10.98;;
64029;SDS011;50277;52.064;4.492;2023-05-07T07:37:58;15.13;;;12.10;;
64029;SDS011;50277;52.064;4.492;2023-05-07T07:40:24;12.90;;;10.77;;
64029;SDS011;50277;52.064;4.492;2023-05-07T07:42:50;15.38;;;12.18;;
64029;SDS011;50277;52.064;4.492;2023-05-07T07:45:15;16.42;;;11.02;;
64029;SDS011;50277;52.064;4.492;2023-05-07T07:47:40;13.18;;;11.57;;
64029;SDS011;50277;52.064;4.492;2023-05-07T07:50:06;13.55;;;10.80;;
64029;SDS011;50277;52.064;4.492;2023-05-07T07:52:32;13.20;;;10.93;;
64029;SDS011;50277;52.064;4.492;2023-05-07T07:54:58;13.93;;;11.48;;
64029;SDS011;50277;52.064;4.492;2023-05-07T07:57:23;15.13;;;10.90;;
64029;SDS011;50277;52.064;4.492;2023-05-07T07:59:49;13.50;;;10.88;;
64029;SDS011;50277;52.064;4.492;2023-05-07T08:02:15;14.07;;;11.80;;
64029;SDS011;50277;52.064;4.492;2023-05-07T08:04:40;15.27;;;10.88;;
64029;SDS011;50277;52.064;4.492;2023-05-07T08:07:06;13.40;;;9.60;;
64029;SDS011;50277;52.064;4.492;2023-05-07T08:09:32;12.65;;;9.07;;
64029;SDS011;50277;52.064;4.492;2023-05-07T08:11:57;12.48;;;9.35;;
64029;SDS011;50277;52.064;4.492;2023-05-07T08:14:23;15.73;;;9.10;;
64029;SDS011;50277;52.064;4.492;2023-05-07T08:16:48;10.05;;;8.10;;
64029;SDS011;50277;52.064;4.492;2023-05-07T08:19:13;9.90;;;8.52;;
64029;SDS011;50277;52.064;4.492;2023-05-07T08:21:39;11.63;;;8.07;;
64029;SDS011;50277;52.064;4.492;2023-05-07T08:24:05;11.32;;;8.25;;
64029;SDS011;50277;52.064;4.492;2023-05-07T08:26:30;9.55;;;8.25;;
64029;SDS011;50277;52.064;4.492;2023-05-07T08:28:56;11.13;;;7.88;;
64029;SDS011;50277;52.064;4.492;2023-05-07T08:31:21;10.50;;;7.30;;
64029;SDS011;50277;52.064;4.492;2023-05-07T08:33:46;11.10;;;6.35;;
64029;SDS011;50277;52.064;4.492;2023-05-07T08:36:13;8.63;;;6.40;;
64029;SDS011;50277;52.064;4.492;2023-05-07T08:38:38;11.25;;;7.80;;
64029;SDS011;50277;52.064;4.492;2023-05-07T08:41:05;8.35;;;7.28;;
64029;SDS011;50277;52.064;4.492;2023-05-07T08:43:32;10.52;;;6.93;;
64029;SDS011;50277;52.064;4.492;2023-05-07T08:45:58;9.27;;;6.97;;
64029;SDS011;50277;52.064;4.492;2023-05-07T08:48:27;12.43;;;8.65;;
64029;SDS011;50277;52.064;4.492;2023-05-07T08:50:52;12.65;;;8.45;;
64029;SDS011;50277;52.064;4.492;2023-05-07T08:53:17;10.27;;;7.05;;
64029;SDS011;50277;52.064;4.492;2023-05-07T08:55:43;9.68;;;7.28;;
64029;SDS011;50277;52.064;4.492;2023-05-07T08:58:08;10.80;;;7.72;;
64029;SDS011;50277;52.064;4.492;2023-05-07T09:00:34;8.65;;;6.88;;
64029;SDS011;50277;52.064;4.492;2023-05-07T09:03:01;9.27;;;8.10;;
64029;SDS011;50277;52.064;4.492;2023-05-07T09:05:26;9.52;;;7.93;;
64029;SDS011;50277;52.064;4.492;2023-05-07T09:07:52;10.05;;;6.47;;
64029;SDS011;50277;52.064;4.492;2023-05-07T09:10:17;9.80;;;6.25;;
64029;SDS011;50277;52.064;4.492;2023-05-07T09:12:43;14.88;;;6.93;;
64029;SDS011;50277;52.064;4.492;2023-05-07T09:15:08;9.43;;;7.18;;
64029;SDS011;50277;52.064;4.492;2023-05-07T09:17:34;13.13;;;7.45;;
64029;SDS011;50277;52.064;4.492;2023-05-07T09:20:03;9.82;;;7.45;;
64029;SDS011;50277;52.064;4.492;2023-05-07T09:22:31;9.43;;;7.93;;
64029;SDS011;50277;52.064;4.492;2023-05-07T09:27:23;9.80;;;8.20;;
64029;SDS011;50277;52.064;4.492;2023-05-07T09:29:48;13.10;;;8.93;;
64029;SDS011;50277;52.064;4.492;2023-05-07T09:32:13;10.32;;;8.80;;
64029;SDS011;50277;52.064;4.492;2023-05-07T09:34:40;12.77;;;8.45;;
64029;SDS011;50277;52.064;4.492;2023-05-07T09:37:06;8.95;;;8.05;;
64029;SDS011;50277;52.064;4.492;2023-05-07T09:39:41;10.68;;;7.53;;
64029;SDS011;50277;52.064;4.492;2023-05-07T09:42:08;12.60;;;8.18;;
64029;SDS011;50277;52.064;4.492;2023-05-07T09:44:34;10.95;;;8.00;;
64029;SDS011;50277;52.064;4.492;2023-05-07T09:47:00;12.30;;;8.73;;
64029;SDS011;50277;52.064;4.492;2023-05-07T09:49:27;14.20;;;9.15;;
64029;SDS011;50277;52.064;4.492;2023-05-07T09:51:54;10.50;;;7.80;;
64029;SDS011;50277;52.064;4.492;2023-05-07T09:54:22;12.23;;;8.65;;
64029;SDS011;50277;52.064;4.492;2023-05-07T09:56:48;12.98;;;9.48;;
64029;SDS011;50277;52.064;4.492;2023-05-07T09:59:14;14.20;;;9.63;;
64029;SDS011;50277;52.064;4.492;2023-05-07T10:01:41;12.07;;;9.85;;
64029;SDS011;50277;52.064;4.492;2023-05-07T10:04:07;14.38;;;9.00;;
64029;SDS011;50277;52.064;4.492;2023-05-07T10:06:34;13.40;;;8.93;;
64029;SDS011;50277;52.064;4.492;2023-05-07T10:09:00;11.18;;;8.23;;
64029;SDS011;50277;52.064;4.492;2023-05-07T10:11:25;17.00;;;8.82;;
64029;SDS011;50277;52.064;4.492;2023-05-07T10:13:51;11.07;;;7.63;;
64029;SDS011;50277;52.064;4.492;2023-05-07T10:16:17;11.30;;;7.47;;
64029;SDS011;50277;52.064;4.492;2023-05-07T10:18:43;12.48;;;7.50;;
64029;SDS011;50277;52.064;4.492;2023-05-07T10:21:18;11.13;;;7.63;;
64029;SDS011;50277;52.064;4.492;2023-05-07T10:23:56;11.57;;;7.13;;
64029;SDS011;50277;52.064;4.492;2023-05-07T10:26:25;12.32;;;8.18;;
64029;SDS011;50277;52.064;4.492;2023-05-07T10:28:54;9.18;;;6.90;;
64029;SDS011;50277;52.064;4.492;2023-05-07T10:34:26;12.73;;;7.45;;
64029;SDS011;50277;52.064;4.492;2023-05-07T10:36:54;12.02;;;6.18;;
64029;SDS011;50277;52.064;4.492;2023-05-07T10:39:21;10.05;;;7.40;;
64029;SDS011;50277;52.064;4.492;2023-05-07T10:41:47;10.40;;;6.85;;
64029;SDS011;50277;52.064;4.492;2023-05-07T10:44:24;10.20;;;7.20;;
64029;SDS011;50277;52.064;4.492;2023-05-07T10:47:06;12.82;;;7.13;;
64029;SDS011;50277;52.064;4.492;2023-05-07T10:52:10;9.25;;;5.85;;
64029;SDS011;50277;52.064;4.492;2023-05-07T10:54:38;11.10;;;6.15;;
64029;SDS011;50277;52.064;4.492;2023-05-07T11:00:01;13.80;;;7.35;;
64029;SDS011;50277;52.064;4.492;2023-05-07T11:05:32;11.48;;;6.95;;
64029;SDS011;50277;52.064;4.492;2023-05-07T11:08:01;11.57;;;6.55;;
64029;SDS011;50277;52.064;4.492;2023-05-07T11:13:15;13.13;;;6.88;;
64029;SDS011;50277;52.064;4.492;2023-05-07T11:15:42;8.73;;;5.45;;
64029;SDS011;50277;52.064;4.492;2023-05-07T11:18:12;7.25;;;5.10;;
64029;SDS011;50277;52.064;4.492;2023-05-07T11:20:51;10.47;;;5.10;;
64029;SDS011;50277;52.064;4.492;2023-05-07T11:25:59;6.07;;;3.67;;
64029;SDS011;50277;52.064;4.492;2023-05-07T11:28:25;7.25;;;3.65;;
64029;SDS011;50277;52.064;4.492;2023-05-07T11:30:52;13.77;;;6.30;;
64029;SDS011;50277;52.064;4.492;2023-05-07T11:33:18;9.07;;;5.03;;
64029;SDS011;50277;52.064;4.492;2023-05-07T11:35:43;9.13;;;4.82;;
64029;SDS011;50277;52.064;4.492;2023-05-07T11:38:09;10.40;;;4.50;;
64029;SDS011;50277;52.064;4.492;2023-05-07T11:40:34;12.20;;;5.18;;
64029;SDS011;50277;52.064;4.492;2023-05-07T11:43:08;11.30;;;5.50;;
64029;SDS011;50277;52.064;4.492;2023-05-07T11:45:35;11.20;;;5.03;;
64029;SDS011;50277;52.064;4.492;2023-05-07T11:48:01;8.75;;;6.05;;
64029;SDS011;50277;52.064;4.492;2023-05-07T11:50:27;11.18;;;6.78;;
64029;SDS011;50277;52.064;4.492;2023-05-07T11:52:52;9.40;;;6.85;;
64029;SDS011;50277;52.064;4.492;2023-05-07T11:55:18;16.30;;;8.13;;
64029;SDS011;50277;52.064;4.492;2023-05-07T11:57:44;13.88;;;7.45;;
64029;SDS011;50277;52.064;4.492;2023-05-07T12:00:10;10.90;;;7.68;;
64029;SDS011;50277;52.064;4.492;2023-05-07T12:02:35;11.23;;;8.07;;
64029;SDS011;50277;52.064;4.492;2023-05-07T12:05:01;10.27;;;7.05;;
64029;SDS011;50277;52.064;4.492;2023-05-07T12:07:27;9.40;;;6.88;;
64029;SDS011;50277;52.064;4.492;2023-05-07T12:09:53;11.15;;;7.30;;
64029;SDS011;50277;52.064;4.492;2023-05-07T12:12:18;10.55;;;7.22;;
64029;SDS011;50277;52.064;4.492;2023-05-07T12:14:44;9.45;;;7.35;;
64029;SDS011;50277;52.064;4.492;2023-05-07T12:17:11;8.57;;;6.10;;
64029;SDS011;50277;52.064;4.492;2023-05-07T12:19:37;9.32;;;6.50;;
64029;SDS011;50277;52.064;4.492;2023-05-07T12:22:04;15.50;;;8.23;;
64029;SDS011;50277;52.064;4.492;2023-05-07T12:24:45;11.98;;;7.03;;
64029;SDS011;50277;52.064;4.492;2023-05-07T12:27:15;14.40;;;8.90;;
64029;SDS011;50277;52.064;4.492;2023-05-07T12:29:47;20.63;;;9.95;;
64029;SDS011;50277;52.064;4.492;2023-05-07T12:32:13;16.90;;;9.10;;
64029;SDS011;50277;52.064;4.492;2023-05-07T12:34:42;20.50;;;10.70;;
64029;SDS011;50277;52.064;4.492;2023-05-07T12:37:07;19.00;;;11.23;;
64029;SDS011;50277;52.064;4.492;2023-05-07T12:39:33;15.85;;;9.48;;
64029;SDS011;50277;52.064;4.492;2023-05-07T12:41:58;26.05;;;12.63;;
64029;SDS011;50277;52.064;4.492;2023-05-07T12:44:33;22.33;;;10.60;;
64029;SDS011;50277;52.064;4.492;2023-05-07T12:47:02;18.98;;;11.05;;
64029;SDS011;50277;52.064;4.492;2023-05-07T12:49:28;19.63;;;10.85;;
64029;SDS011;50277;52.064;4.492;2023-05-07T12:51:53;29.75;;;15.77;;
64029;SDS011;50277;52.064;4.492;2023-05-07T12:54:29;21.60;;;12.35;;
64029;SDS011;50277;52.064;4.492;2023-05-07T12:59:31;28.40;;;15.95;;
64029;SDS011;50277;52.064;4.492;2023-05-07T13:02:06;26.95;;;14.95;;
64029;SDS011;50277;52.064;4.492;2023-05-07T13:04:32;27.63;;;16.45;;
64029;SDS011;50277;52.064;4.492;2023-05-07T13:06:58;30.75;;;15.10;;
64029;SDS011;50277;52.064;4.492;2023-05-07T13:09:23;20.73;;;15.10;;
64029;SDS011;50277;52.064;4.492;2023-05-07T13:11:49;26.27;;;15.85;;
64029;SDS011;50277;52.064;4.492;2023-05-07T13:14:15;23.30;;;16.05;;
64029;SDS011;50277;52.064;4.492;2023-05-07T13:16:40;26.23;;;17.48;;
64029;SDS011;50277;52.064;4.492;2023-05-07T13:19:05;21.77;;;17.38;;
64029;SDS011;50277;52.064;4.492;2023-05-07T13:21:31;27.70;;;17.65;;
64029;SDS011;50277;52.064;4.492;2023-05-07T13:23:59;23.05;;;17.52;;
64029;SDS011;50277;52.064;4.492;2023-05-07T13:26:25;22.35;;;16.75;;
64029;SDS011;50277;52.064;4.492;2023-05-07T13:28:50;24.60;;;16.38;;
64029;SDS011;50277;52.064;4.492;2023-05-07T13:31:16;21.90;;;16.63;;
64029;SDS011;50277;52.064;4.492;2023-05-07T13:33:42;26.95;;;17.58;;
64029;SDS011;50277;52.064;4.492;2023-05-07T13:36:07;25.95;;;16.50;;
64029;SDS011;50277;52.064;4.492;2023-05-07T13:38:33;24.73;;;16.80;;
64029;SDS011;50277;52.064;4.492;2023-05-07T13:40:58;25.38;;;19.13;;
64029;SDS011;50277;52.064;4.492;2023-05-07T13:43:24;27.30;;;18.00;;
64029;SDS011;50277;52.064;4.492;2023-05-07T13:45:49;22.85;;;17.55;;
64029;SDS011;50277;52.064;4.492;2023-05-07T13:48:15;23.27;;;17.40;;
64029;SDS011;50277;52.064;4.492;2023-05-07T13:50:40;24.38;;;16.88;;
64029;SDS011;50277;52.064;4.492;2023-05-07T13:53:05;23.83;;;17.58;;
64029;SDS011;50277;52.064;4.492;2023-05-07T13:55:32;26.08;;;17.45;;
64029;SDS011;50277;52.064;4.492;2023-05-07T13:57:58;25.13;;;17.80;;
64029;SDS011;50277;52.064;4.492;2023-05-07T14:00:25;27.30;;;17.27;;
64029;SDS011;50277;52.064;4.492;2023-05-07T14:02:52;25.35;;;17.38;;
64029;SDS011;50277;52.064;4.492;2023-05-07T14:05:17;23.48;;;17.95;;
64029;SDS011;50277;52.064;4.492;2023-05-07T14:07:43;25.02;;;17.67;;
64029;SDS011;50277;52.064;4.492;2023-05-07T14:10:08;26.98;;;18.50;;
64029;SDS011;50277;52.064;4.492;2023-05-07T14:12:34;27.48;;;21.10;;
64029;SDS011;50277;52.064;4.492;2023-05-07T14:15:00;30.75;;;18.13;;
64029;SDS011;50277;52.064;4.492;2023-05-07T14:17:25;29.25;;;18.08;;
64029;SDS011;50277;52.064;4.492;2023-05-07T14:19:52;27.15;;;19.05;;
64029;SDS011;50277;52.064;4.492;2023-05-07T14:22:20;29.65;;;19.80;;
64029;SDS011;50277;52.064;4.492;2023-05-07T14:24:46;22.27;;;15.38;;
64029;SDS011;50277;52.064;4.492;2023-05-07T14:27:11;22.33;;;17.65;;
64029;SDS011;50277;52.064;4.492;2023-05-07T14:29:36;28.15;;;19.13;;
64029;SDS011;50277;52.064;4.492;2023-05-07T14:32:02;24.83;;;19.35;;
64029;SDS011;50277;52.064;4.492;2023-05-07T14:34:28;24.52;;;17.67;;
64029;SDS011;50277;52.064;4.492;2023-05-07T14:36:53;25.13;;;18.10;;
64029;SDS011;50277;52.064;4.492;2023-05-07T14:39:19;25.02;;;17.52;;
64029;SDS011;50277;52.064;4.492;2023-05-07T14:41:44;23.88;;;18.48;;